sensor_id;sensor_type;location;lat;lon;timestamp;temperature;humidity
23311;DHT22;11828;51.508;18.118;2024-01-11T00:01:08;14.50;24.00
23311;DHT22;11828;51.508;18.118;2024-01-11T00:03:39;14.40;23.90
23311;DHT22;11828;51.508;18.118;2024-01-11T00:06:05;14.40;24.00
23311;DHT22;11828;51.508;18.118;2024-01-11T00:08:31;14.40;23.90
23311;DHT22;11828;51.508;18.118;2024-01-11T00:10:57;14.30;23.80
23311;DHT22;11828;51.508;18.118;2024-01-11T00:13:24;14.40;23.90
23311;DHT22;11828;51.508;18.118;2024-01-11T00:15:50;14.30;24.00
23311;DHT22;11828;51.508;18.118;2024-01-11T00:18:16;14.40;23.90
23311;DHT22;11828;51.508;18.118;2024-01-11T00:20:43;14.30;24.00
23311;DHT22;11828;51.508;18.118;2024-01-11T00:23:09;14.20;24.20
23311;DHT22;11828;51.508;18.118;2024-01-11T00:25:35;14.20;24.30
23311;DHT22;11828;51.508;18.118;2024-01-11T00:28:02;14.00;24.40
23311;DHT22;11828;51.508;18.118;2024-01-11T00:30:28;14.00;24.40
23311;DHT22;11828;51.508;18.118;2024-01-11T00:32:55;13.80;24.40
23311;DHT22;11828;51.508;18.118;2024-01-11T00:35:21;13.60;24.50
23311;DHT22;11828;51.508;18.118;2024-01-11T00:37:47;13.60;25.20
23311;DHT22;11828;51.508;18.118;2024-01-11T00:40:13;13.60;24.80
23311;DHT22;11828;51.508;18.118;2024-01-11T00:42:39;13.70;24.90
23311;DHT22;11828;51.508;18.118;2024-01-11T00:45:05;13.70;24.80
23311;DHT22;11828;51.508;18.118;2024-01-11T00:47:32;13.90;24.70
23311;DHT22;11828;51.508;18.118;2024-01-11T00:49:58;14.00;24.60
23311;DHT22;11828;51.508;18.118;2024-01-11T00:52:24;14.10;24.50
23311;DHT22;11828;51.508;18.118;2024-01-11T00:54:50;14.10;24.50
23311;DHT22;11828;51.508;18.118;2024-01-11T00:57:16;14.10;24.40
23311;DHT22;11828;51.508;18.118;2024-01-11T00:59:42;14.20;24.40
23311;DHT22;11828;51.508;18.118;2024-01-11T01:02:08;14.20;24.40
23311;DHT22;11828;51.508;18.118;2024-01-11T01:04:38;14.20;24.40
23311;DHT22;11828;51.508;18.118;2024-01-11T01:07:04;14.20;24.40
23311;DHT22;11828;51.508;18.118;2024-01-11T01:09:32;14.20;24.30
23311;DHT22;11828;51.508;18.118;2024-01-11T01:11:58;14.30;24.30
23311;DHT22;11828;51.508;18.118;2024-01-11T01:14:24;14.30;24.20
23311;DHT22;11828;51.508;18.118;2024-01-11T01:16:50;14.20;24.20
23311;DHT22;11828;51.508;18.118;2024-01-11T01:19:16;14.10;24.30
23311;DHT22;11828;51.508;18.118;2024-01-11T01:21:42;14.20;24.40
23311;DHT22;11828;51.508;18.118;2024-01-11T01:24:08;14.20;24.40
23311;DHT22;11828;51.508;18.118;2024-01-11T01:26:35;14.20;24.40
23311;DHT22;11828;51.508;18.118;2024-01-11T01:29:01;14.20;24.40
23311;DHT22;11828;51.508;18.118;2024-01-11T01:31:27;14.20;24.40
23311;DHT22;11828;51.508;18.118;2024-01-11T01:33:54;14.20;24.40
23311;DHT22;11828;51.508;18.118;2024-01-11T01:36:20;14.20;24.40
23311;DHT22;11828;51.508;18.118;2024-01-11T01:38:46;14.20;24.30
23311;DHT22;11828;51.508;18.118;2024-01-11T01:41:12;14.20;24.30
23311;DHT22;11828;51.508;18.118;2024-01-11T01:43:38;14.10;24.30
23311;DHT22;11828;51.508;18.118;2024-01-11T01:46:05;14.00;24.30
23311;DHT22;11828;51.508;18.118;2024-01-11T01:48:32;13.90;24.40
23311;DHT22;11828;51.508;18.118;2024-01-11T01:50:58;13.80;24.50
23311;DHT22;11828;51.508;18.118;2024-01-11T01:53:27;13.80;24.70
23311;DHT22;11828;51.508;18.118;2024-01-11T01:55:54;13.80;24.80
23311;DHT22;11828;51.508;18.118;2024-01-11T01:58:22;13.70;24.70
23311;DHT22;11828;51.508;18.118;2024-01-11T02:00:50;13.80;24.80
23311;DHT22;11828;51.508;18.118;2024-01-11T02:03:17;13.60;24.70
23311;DHT22;11828;51.508;18.118;2024-01-11T02:05:43;13.60;24.90
23311;DHT22;11828;51.508;18.118;2024-01-11T02:08:15;13.60;24.90
23311;DHT22;11828;51.508;18.118;2024-01-11T02:10:43;13.60;24.90
23311;DHT22;11828;51.508;18.118;2024-01-11T02:13:10;13.50;24.80
23311;DHT22;11828;51.508;18.118;2024-01-11T02:15:37;13.60;25.00
23311;DHT22;11828;51.508;18.118;2024-01-11T02:18:03;13.50;24.90
23311;DHT22;11828;51.508;18.118;2024-01-11T02:20:29;13.50;24.90
23311;DHT22;11828;51.508;18.118;2024-01-11T02:23:01;13.60;25.00
23311;DHT22;11828;51.508;18.118;2024-01-11T02:25:31;13.60;25.00
23311;DHT22;11828;51.508;18.118;2024-01-11T02:27:57;13.60;25.00
23311;DHT22;11828;51.508;18.118;2024-01-11T02:30:23;13.80;25.00
23311;DHT22;11828;51.508;18.118;2024-01-11T02:32:50;13.90;24.90
23311;DHT22;11828;51.508;18.118;2024-01-11T02:35:16;14.00;24.80
23311;DHT22;11828;51.508;18.118;2024-01-11T02:37:45;14.10;24.60
23311;DHT22;11828;51.508;18.118;2024-01-11T02:40:13;14.20;24.50
23311;DHT22;11828;51.508;18.118;2024-01-11T02:42:39;14.30;24.30
23311;DHT22;11828;51.508;18.118;2024-01-11T02:45:06;14.50;24.20
23311;DHT22;11828;51.508;18.118;2024-01-11T02:47:33;14.60;24.00
23311;DHT22;11828;51.508;18.118;2024-01-11T02:49:59;14.70;23.90
23311;DHT22;11828;51.508;18.118;2024-01-11T02:52:25;14.70;23.90
23311;DHT22;11828;51.508;18.118;2024-01-11T02:54:51;14.80;23.80
23311;DHT22;11828;51.508;18.118;2024-01-11T02:57:17;14.90;23.70
23311;DHT22;11828;51.508;18.118;2024-01-11T02:59:43;14.90;23.60
23311;DHT22;11828;51.508;18.118;2024-01-11T03:02:10;15.00;23.50
23311;DHT22;11828;51.508;18.118;2024-01-11T03:04:36;15.00;23.50
23311;DHT22;11828;51.508;18.118;2024-01-11T03:07:02;15.00;23.50
23311;DHT22;11828;51.508;18.118;2024-01-11T03:09:28;15.10;23.50
23311;DHT22;11828;51.508;18.118;2024-01-11T03:11:55;15.10;23.40
23311;DHT22;11828;51.508;18.118;2024-01-11T03:14:21;15.10;23.30
23311;DHT22;11828;51.508;18.118;2024-01-11T03:16:47;15.10;23.30
23311;DHT22;11828;51.508;18.118;2024-01-11T03:19:13;15.10;23.30
23311;DHT22;11828;51.508;18.118;2024-01-11T03:21:45;15.10;23.80
23311;DHT22;11828;51.508;18.118;2024-01-11T03:24:13;15.10;23.30
23311;DHT22;11828;51.508;18.118;2024-01-11T03:26:40;15.00;23.30
23311;DHT22;11828;51.508;18.118;2024-01-11T03:29:06;15.00;23.40
23311;DHT22;11828;51.508;18.118;2024-01-11T03:31:32;15.00;23.50
23311;DHT22;11828;51.508;18.118;2024-01-11T03:33:58;14.90;23.50
23311;DHT22;11828;51.508;18.118;2024-01-11T03:36:25;14.90;23.50
23311;DHT22;11828;51.508;18.118;2024-01-11T03:38:51;14.90;23.60
23311;DHT22;11828;51.508;18.118;2024-01-11T03:41:17;14.80;23.60
23311;DHT22;11828;51.508;18.118;2024-01-11T03:43:44;14.80;23.70
23311;DHT22;11828;51.508;18.118;2024-01-11T03:46:10;14.70;23.70
23311;DHT22;11828;51.508;18.118;2024-01-11T03:48:36;14.70;23.70
23311;DHT22;11828;51.508;18.118;2024-01-11T03:51:02;14.60;23.70
23311;DHT22;11828;51.508;18.118;2024-01-11T03:53:28;14.60;23.80
23311;DHT22;11828;51.508;18.118;2024-01-11T03:55:55;14.50;23.70
23311;DHT22;11828;51.508;18.118;2024-01-11T03:58:21;14.50;23.80
23311;DHT22;11828;51.508;18.118;2024-01-11T04:00:47;14.50;23.70
23311;DHT22;11828;51.508;18.118;2024-01-11T04:03:13;14.40;23.70
23311;DHT22;11828;51.508;18.118;2024-01-11T04:05:39;14.40;23.70
23311;DHT22;11828;51.508;18.118;2024-01-11T04:08:06;14.40;23.70
23311;DHT22;11828;51.508;18.118;2024-01-11T04:10:35;14.30;23.60
23311;DHT22;11828;51.508;18.118;2024-01-11T04:13:01;14.30;23.60
23311;DHT22;11828;51.508;18.118;2024-01-11T04:15:27;14.30;23.60
23311;DHT22;11828;51.508;18.118;2024-01-11T04:17:53;14.40;23.60
23311;DHT22;11828;51.508;18.118;2024-01-11T04:20:20;14.60;23.60
23311;DHT22;11828;51.508;18.118;2024-01-11T04:22:45;14.70;23.40
23311;DHT22;11828;51.508;18.118;2024-01-11T04:25:12;14.80;23.20
23311;DHT22;11828;51.508;18.118;2024-01-11T04:27:38;14.90;23.00
23311;DHT22;11828;51.508;18.118;2024-01-11T04:30:04;15.00;22.80
23311;DHT22;11828;51.508;18.118;2024-01-11T04:32:31;15.00;22.80
23311;DHT22;11828;51.508;18.118;2024-01-11T04:34:57;15.10;22.70
23311;DHT22;11828;51.508;18.118;2024-01-11T04:37:23;15.20;22.70
23311;DHT22;11828;51.508;18.118;2024-01-11T04:39:49;15.30;22.50
23311;DHT22;11828;51.508;18.118;2024-01-11T04:42:15;15.30;22.20
23311;DHT22;11828;51.508;18.118;2024-01-11T04:44:41;15.30;22.20
23311;DHT22;11828;51.508;18.118;2024-01-11T04:47:07;15.30;22.00
23311;DHT22;11828;51.508;18.118;2024-01-11T04:49:34;15.30;21.90
23311;DHT22;11828;51.508;18.118;2024-01-11T04:52:00;15.30;21.80
23311;DHT22;11828;51.508;18.118;2024-01-11T04:54:26;15.30;21.60
23311;DHT22;11828;51.508;18.118;2024-01-11T04:56:52;15.30;21.70
23311;DHT22;11828;51.508;18.118;2024-01-11T04:59:19;15.30;21.70
23311;DHT22;11828;51.508;18.118;2024-01-11T05:01:46;15.40;21.70
23311;DHT22;11828;51.508;18.118;2024-01-11T05:04:12;15.30;21.40
23311;DHT22;11828;51.508;18.118;2024-01-11T05:06:38;15.30;21.20
23311;DHT22;11828;51.508;18.118;2024-01-11T05:09:05;15.30;21.20
23311;DHT22;11828;51.508;18.118;2024-01-11T05:11:31;15.30;21.50
23311;DHT22;11828;51.508;18.118;2024-01-11T05:13:57;15.30;22.00
23311;DHT22;11828;51.508;18.118;2024-01-11T05:16:29;15.30;21.50
23311;DHT22;11828;51.508;18.118;2024-01-11T05:18:57;15.20;21.50
23311;DHT22;11828;51.508;18.118;2024-01-11T05:21:24;15.10;21.60
23311;DHT22;11828;51.508;18.118;2024-01-11T05:23:51;15.20;21.60
23311;DHT22;11828;51.508;18.118;2024-01-11T05:26:18;15.20;21.70
23311;DHT22;11828;51.508;18.118;2024-01-11T05:28:45;15.10;21.80
23311;DHT22;11828;51.508;18.118;2024-01-11T05:31:12;15.10;21.80
23311;DHT22;11828;51.508;18.118;2024-01-11T05:33:41;15.10;22.00
23311;DHT22;11828;51.508;18.118;2024-01-11T05:36:07;15.10;21.90
23311;DHT22;11828;51.508;18.118;2024-01-11T05:38:34;15.00;21.90
23311;DHT22;11828;51.508;18.118;2024-01-11T05:41:01;14.90;22.00
23311;DHT22;11828;51.508;18.118;2024-01-11T05:43:27;14.80;22.00
23311;DHT22;11828;51.508;18.118;2024-01-11T05:45:54;14.70;22.00
23311;DHT22;11828;51.508;18.118;2024-01-11T05:48:20;14.70;22.20
23311;DHT22;11828;51.508;18.118;2024-01-11T05:50:46;14.60;22.40
23311;DHT22;11828;51.508;18.118;2024-01-11T05:53:13;14.50;22.30
23311;DHT22;11828;51.508;18.118;2024-01-11T05:55:42;14.40;22.40
23311;DHT22;11828;51.508;18.118;2024-01-11T05:58:08;14.40;22.50
23311;DHT22;11828;51.508;18.118;2024-01-11T06:00:34;14.20;22.60
23311;DHT22;11828;51.508;18.118;2024-01-11T06:03:00;14.20;22.60
23311;DHT22;11828;51.508;18.118;2024-01-11T06:05:26;14.10;22.50
23311;DHT22;11828;51.508;18.118;2024-01-11T06:07:53;14.10;22.50
23311;DHT22;11828;51.508;18.118;2024-01-11T06:10:19;14.10;22.60
23311;DHT22;11828;51.508;18.118;2024-01-11T06:12:45;14.20;22.60
23311;DHT22;11828;51.508;18.118;2024-01-11T06:15:11;14.20;22.70
23311;DHT22;11828;51.508;18.118;2024-01-11T06:17:37;14.30;22.70
23311;DHT22;11828;51.508;18.118;2024-01-11T06:20:03;14.20;22.60
23311;DHT22;11828;51.508;18.118;2024-01-11T06:22:31;14.20;22.50
23311;DHT22;11828;51.508;18.118;2024-01-11T06:24:57;14.30;22.60
23311;DHT22;11828;51.508;18.118;2024-01-11T06:27:25;14.30;22.40
23311;DHT22;11828;51.508;18.118;2024-01-11T06:29:51;14.20;22.50
23311;DHT22;11828;51.508;18.118;2024-01-11T06:32:17;14.20;22.60
23311;DHT22;11828;51.508;18.118;2024-01-11T06:34:44;14.20;22.70
23311;DHT22;11828;51.508;18.118;2024-01-11T06:37:12;14.20;22.70
23311;DHT22;11828;51.508;18.118;2024-01-11T06:39:39;14.20;22.70
23311;DHT22;11828;51.508;18.118;2024-01-11T06:42:05;14.20;22.70
23311;DHT22;11828;51.508;18.118;2024-01-11T06:44:31;14.20;22.60
23311;DHT22;11828;51.508;18.118;2024-01-11T06:46:57;14.20;22.70
23311;DHT22;11828;51.508;18.118;2024-01-11T06:49:23;14.20;22.70
23311;DHT22;11828;51.508;18.118;2024-01-11T06:51:49;14.20;22.90
23311;DHT22;11828;51.508;18.118;2024-01-11T06:54:15;14.20;23.00
23311;DHT22;11828;51.508;18.118;2024-01-11T06:56:42;14.30;23.00
23311;DHT22;11828;51.508;18.118;2024-01-11T06:59:08;14.30;22.90
23311;DHT22;11828;51.508;18.118;2024-01-11T07:01:34;14.20;22.90
23311;DHT22;11828;51.508;18.118;2024-01-11T07:04:00;14.30;22.90
23311;DHT22;11828;51.508;18.118;2024-01-11T07:06:27;14.30;22.90
23311;DHT22;11828;51.508;18.118;2024-01-11T07:08:53;14.40;23.00
23311;DHT22;11828;51.508;18.118;2024-01-11T07:11:19;14.40;23.10
23311;DHT22;11828;51.508;18.118;2024-01-11T07:13:45;14.40;23.20
23311;DHT22;11828;51.508;18.118;2024-01-11T07:16:12;14.40;23.10
23311;DHT22;11828;51.508;18.118;2024-01-11T07:18:38;14.40;23.00
23311;DHT22;11828;51.508;18.118;2024-01-11T07:21:04;14.40;23.10
23311;DHT22;11828;51.508;18.118;2024-01-11T07:23:30;14.40;23.10
23311;DHT22;11828;51.508;18.118;2024-01-11T07:25:56;14.30;23.00
23311;DHT22;11828;51.508;18.118;2024-01-11T07:28:24;14.30;23.00
23311;DHT22;11828;51.508;18.118;2024-01-11T07:30:54;14.40;23.10
23311;DHT22;11828;51.508;18.118;2024-01-11T07:33:20;14.40;23.10
23311;DHT22;11828;51.508;18.118;2024-01-11T07:35:47;14.40;23.30
23311;DHT22;11828;51.508;18.118;2024-01-11T07:38:13;14.40;23.30
23311;DHT22;11828;51.508;18.118;2024-01-11T07:40:40;14.50;23.20
23311;DHT22;11828;51.508;18.118;2024-01-11T07:43:06;14.50;23.30
23311;DHT22;11828;51.508;18.118;2024-01-11T07:45:32;14.60;23.30
23311;DHT22;11828;51.508;18.118;2024-01-11T07:47:58;14.60;23.50
23311;DHT22;11828;51.508;18.118;2024-01-11T07:50:25;14.60;23.50
23311;DHT22;11828;51.508;18.118;2024-01-11T07:52:51;14.70;23.60
23311;DHT22;11828;51.508;18.118;2024-01-11T07:55:17;14.80;23.60
23311;DHT22;11828;51.508;18.118;2024-01-11T07:57:43;14.90;23.50
23311;DHT22;11828;51.508;18.118;2024-01-11T08:00:10;15.00;23.40
23311;DHT22;11828;51.508;18.118;2024-01-11T08:02:36;15.00;23.30
23311;DHT22;11828;51.508;18.118;2024-01-11T08:05:03;15.00;23.20
23311;DHT22;11828;51.508;18.118;2024-01-11T08:07:30;15.10;23.50
23311;DHT22;11828;51.508;18.118;2024-01-11T08:09:56;15.20;23.30
23311;DHT22;11828;51.508;18.118;2024-01-11T08:12:23;15.20;23.20
23311;DHT22;11828;51.508;18.118;2024-01-11T08:14:49;15.30;23.20
23311;DHT22;11828;51.508;18.118;2024-01-11T08:17:15;15.40;23.00
23311;DHT22;11828;51.508;18.118;2024-01-11T08:19:42;15.60;23.00
23311;DHT22;11828;51.508;18.118;2024-01-11T08:22:09;15.60;22.90
23311;DHT22;11828;51.508;18.118;2024-01-11T08:24:36;15.60;23.00
23311;DHT22;11828;51.508;18.118;2024-01-11T08:27:03;15.60;23.00
23311;DHT22;11828;51.508;18.118;2024-01-11T08:29:30;15.60;22.80
23311;DHT22;11828;51.508;18.118;2024-01-11T08:31:56;15.60;23.00
23311;DHT22;11828;51.508;18.118;2024-01-11T08:34:22;15.60;23.00
23311;DHT22;11828;51.508;18.118;2024-01-11T08:36:52;15.60;23.00
23311;DHT22;11828;51.508;18.118;2024-01-11T08:41:44;15.30;27.30
23311;DHT22;11828;51.508;18.118;2024-01-11T08:44:11;15.30;23.30
23311;DHT22;11828;51.508;18.118;2024-01-11T08:46:37;15.30;23.50
23311;DHT22;11828;51.508;18.118;2024-01-11T08:49:03;15.20;23.60
23311;DHT22;11828;51.508;18.118;2024-01-11T08:51:29;15.30;23.70
23311;DHT22;11828;51.508;18.118;2024-01-11T08:53:56;15.30;23.60
23311;DHT22;11828;51.508;18.118;2024-01-11T08:56:22;15.40;23.70
23311;DHT22;11828;51.508;18.118;2024-01-11T08:58:48;15.50;23.60
23311;DHT22;11828;51.508;18.118;2024-01-11T09:01:15;15.70;23.70
23311;DHT22;11828;51.508;18.118;2024-01-11T09:03:41;15.80;23.50
23311;DHT22;11828;51.508;18.118;2024-01-11T09:06:07;16.00;23.40
23311;DHT22;11828;51.508;18.118;2024-01-11T09:08:34;15.90;23.30
23311;DHT22;11828;51.508;18.118;2024-01-11T09:11:00;16.00;23.40
23311;DHT22;11828;51.508;18.118;2024-01-11T09:13:27;16.10;23.40
23311;DHT22;11828;51.508;18.118;2024-01-11T09:15:54;16.20;23.40
23311;DHT22;11828;51.508;18.118;2024-01-11T09:18:21;16.30;23.30
23311;DHT22;11828;51.508;18.118;2024-01-11T09:20:47;16.40;23.40
23311;DHT22;11828;51.508;18.118;2024-01-11T09:23:15;16.40;23.40
23311;DHT22;11828;51.508;18.118;2024-01-11T09:25:42;16.40;23.50
23311;DHT22;11828;51.508;18.118;2024-01-11T09:28:08;16.50;23.80
23311;DHT22;11828;51.508;18.118;2024-01-11T09:30:34;16.70;23.60
23311;DHT22;11828;51.508;18.118;2024-01-11T09:33:00;16.90;23.60
23311;DHT22;11828;51.508;18.118;2024-01-11T09:35:26;17.00;23.30
23311;DHT22;11828;51.508;18.118;2024-01-11T09:37:53;17.10;23.30
23311;DHT22;11828;51.508;18.118;2024-01-11T09:40:19;17.20;23.30
23311;DHT22;11828;51.508;18.118;2024-01-11T09:42:45;17.10;23.90
23311;DHT22;11828;51.508;18.118;2024-01-11T09:45:16;17.00;23.60
23311;DHT22;11828;51.508;18.118;2024-01-11T09:47:44;16.90;23.80
23311;DHT22;11828;51.508;18.118;2024-01-11T09:50:11;16.90;24.50
23311;DHT22;11828;51.508;18.118;2024-01-11T09:52:50;16.70;24.00
23311;DHT22;11828;51.508;18.118;2024-01-11T09:55:18;16.70;24.20
23311;DHT22;11828;51.508;18.118;2024-01-11T09:57:45;16.70;24.20
23311;DHT22;11828;51.508;18.118;2024-01-11T10:00:32;16.70;24.30
23311;DHT22;11828;51.508;18.118;2024-01-11T10:02:59;16.70;24.50
23311;DHT22;11828;51.508;18.118;2024-01-11T10:05:25;16.80;24.60
23311;DHT22;11828;51.508;18.118;2024-01-11T10:07:53;16.80;24.60
23311;DHT22;11828;51.508;18.118;2024-01-11T10:10:19;16.80;24.50
23311;DHT22;11828;51.508;18.118;2024-01-11T10:12:47;16.90;24.70
23311;DHT22;11828;51.508;18.118;2024-01-11T10:15:14;16.90;24.70
23311;DHT22;11828;51.508;18.118;2024-01-11T10:17:43;16.90;24.70
23311;DHT22;11828;51.508;18.118;2024-01-11T10:20:13;16.80;24.80
23311;DHT22;11828;51.508;18.118;2024-01-11T10:22:46;16.80;24.90
23311;DHT22;11828;51.508;18.118;2024-01-11T10:25:13;16.70;25.00
23311;DHT22;11828;51.508;18.118;2024-01-11T10:27:42;16.70;25.10
23311;DHT22;11828;51.508;18.118;2024-01-11T10:30:13;16.80;25.10
23311;DHT22;11828;51.508;18.118;2024-01-11T10:32:48;16.80;25.10
23311;DHT22;11828;51.508;18.118;2024-01-11T10:35:15;16.90;25.10
23311;DHT22;11828;51.508;18.118;2024-01-11T10:37:43;17.00;25.20
23311;DHT22;11828;51.508;18.118;2024-01-11T10:40:10;17.00;25.10
23311;DHT22;11828;51.508;18.118;2024-01-11T10:42:43;17.10;25.20
23311;DHT22;11828;51.508;18.118;2024-01-11T10:45:17;17.10;25.20
23311;DHT22;11828;51.508;18.118;2024-01-11T10:47:54;17.20;25.20
23311;DHT22;11828;51.508;18.118;2024-01-11T10:50:25;17.20;25.20
23311;DHT22;11828;51.508;18.118;2024-01-11T10:56:05;17.20;25.30
23311;DHT22;11828;51.508;18.118;2024-01-11T10:58:35;17.20;25.40
23311;DHT22;11828;51.508;18.118;2024-01-11T11:01:02;17.20;25.40
23311;DHT22;11828;51.508;18.118;2024-01-11T11:03:30;17.20;25.40
23311;DHT22;11828;51.508;18.118;2024-01-11T11:06:00;17.20;25.50
23311;DHT22;11828;51.508;18.118;2024-01-11T11:08:27;17.30;25.60
23311;DHT22;11828;51.508;18.118;2024-01-11T11:10:57;17.30;25.50
23311;DHT22;11828;51.508;18.118;2024-01-11T11:13:26;17.40;25.50
23311;DHT22;11828;51.508;18.118;2024-01-11T11:15:53;17.30;25.50
23311;DHT22;11828;51.508;18.118;2024-01-11T11:18:20;17.30;25.60
23311;DHT22;11828;51.508;18.118;2024-01-11T11:20:47;17.30;25.60
23311;DHT22;11828;51.508;18.118;2024-01-11T11:23:15;17.30;25.60
23311;DHT22;11828;51.508;18.118;2024-01-11T11:25:45;17.30;25.70
23311;DHT22;11828;51.508;18.118;2024-01-11T11:28:12;17.10;25.70
23311;DHT22;11828;51.508;18.118;2024-01-11T11:30:41;17.20;25.90
23311;DHT22;11828;51.508;18.118;2024-01-11T11:33:17;17.10;26.00
23311;DHT22;11828;51.508;18.118;2024-01-11T11:35:48;17.10;26.10
23311;DHT22;11828;51.508;18.118;2024-01-11T11:38:22;17.10;26.10
23311;DHT22;11828;51.508;18.118;2024-01-11T11:40:51;17.10;26.40
23311;DHT22;11828;51.508;18.118;2024-01-11T11:43:20;17.00;26.30
23311;DHT22;11828;51.508;18.118;2024-01-11T11:45:49;17.00;26.50
23311;DHT22;11828;51.508;18.118;2024-01-11T11:51:17;16.90;26.80
23311;DHT22;11828;51.508;18.118;2024-01-11T11:53:47;16.90;27.00
23311;DHT22;11828;51.508;18.118;2024-01-11T11:56:15;16.90;26.90
23311;DHT22;11828;51.508;18.118;2024-01-11T11:58:44;16.80;26.90
23311;DHT22;11828;51.508;18.118;2024-01-11T12:01:11;16.80;27.20
23311;DHT22;11828;51.508;18.118;2024-01-11T12:03:41;16.70;27.10
23311;DHT22;11828;51.508;18.118;2024-01-11T12:06:09;16.70;27.20
23311;DHT22;11828;51.508;18.118;2024-01-11T12:08:42;16.70;27.30
23311;DHT22;11828;51.508;18.118;2024-01-11T12:11:09;16.70;27.40
23311;DHT22;11828;51.508;18.118;2024-01-11T12:13:36;16.70;27.60
23311;DHT22;11828;51.508;18.118;2024-01-11T12:16:02;16.80;27.60
23311;DHT22;11828;51.508;18.118;2024-01-11T12:18:29;17.00;27.60
23311;DHT22;11828;51.508;18.118;2024-01-11T12:20:55;17.00;27.50
23311;DHT22;11828;51.508;18.118;2024-01-11T12:23:22;17.10;27.70
23311;DHT22;11828;51.508;18.118;2024-01-11T12:25:49;16.90;27.70
23311;DHT22;11828;51.508;18.118;2024-01-11T12:28:16;17.00;28.10
23311;DHT22;11828;51.508;18.118;2024-01-11T12:30:42;16.90;28.10
23311;DHT22;11828;51.508;18.118;2024-01-11T12:33:09;16.90;28.30
23311;DHT22;11828;51.508;18.118;2024-01-11T12:35:36;16.90;28.30
23311;DHT22;11828;51.508;18.118;2024-01-11T12:38:04;16.90;28.40
23311;DHT22;11828;51.508;18.118;2024-01-11T12:40:36;16.90;28.40
23311;DHT22;11828;51.508;18.118;2024-01-11T12:43:04;16.80;28.40
23311;DHT22;11828;51.508;18.118;2024-01-11T12:45:37;16.80;28.50
23311;DHT22;11828;51.508;18.118;2024-01-11T12:48:07;16.80;28.70
23311;DHT22;11828;51.508;18.118;2024-01-11T12:50:35;16.70;28.70
23311;DHT22;11828;51.508;18.118;2024-01-11T12:53:09;16.70;28.70
23311;DHT22;11828;51.508;18.118;2024-01-11T12:55:38;16.50;28.70
23311;DHT22;11828;51.508;18.118;2024-01-11T12:58:05;16.50;29.00
23311;DHT22;11828;51.508;18.118;2024-01-11T13:00:33;16.40;29.00
23311;DHT22;11828;51.508;18.118;2024-01-11T13:02:59;16.30;29.20
23311;DHT22;11828;51.508;18.118;2024-01-11T13:05:25;16.30;29.20
23311;DHT22;11828;51.508;18.118;2024-01-11T13:07:51;16.40;29.40
23311;DHT22;11828;51.508;18.118;2024-01-11T13:10:18;16.30;29.30
23311;DHT22;11828;51.508;18.118;2024-01-11T13:12:44;16.50;29.40
23311;DHT22;11828;51.508;18.118;2024-01-11T13:15:11;16.50;29.40
23311;DHT22;11828;51.508;18.118;2024-01-11T13:17:37;16.50;29.50
23311;DHT22;11828;51.508;18.118;2024-01-11T13:20:05;16.40;29.50
23311;DHT22;11828;51.508;18.118;2024-01-11T13:22:32;16.40;29.50
23311;DHT22;11828;51.508;18.118;2024-01-11T13:24:59;16.20;29.70
23311;DHT22;11828;51.508;18.118;2024-01-11T13:27:26;16.20;29.90
23311;DHT22;11828;51.508;18.118;2024-01-11T13:29:52;16.20;29.90
23311;DHT22;11828;51.508;18.118;2024-01-11T13:32:18;16.10;30.00
23311;DHT22;11828;51.508;18.118;2024-01-11T13:34:44;16.10;30.10
23311;DHT22;11828;51.508;18.118;2024-01-11T13:37:11;16.00;30.10
23311;DHT22;11828;51.508;18.118;2024-01-11T13:39:37;16.10;30.40
23311;DHT22;11828;51.508;18.118;2024-01-11T13:42:04;16.10;30.50
23311;DHT22;11828;51.508;18.118;2024-01-11T13:44:35;16.20;30.40
23311;DHT22;11828;51.508;18.118;2024-01-11T13:47:01;16.10;30.40
23311;DHT22;11828;51.508;18.118;2024-01-11T13:49:28;16.20;30.60
23311;DHT22;11828;51.508;18.118;2024-01-11T13:51:54;16.30;30.80
23311;DHT22;11828;51.508;18.118;2024-01-11T13:54:20;16.20;30.70
23311;DHT22;11828;51.508;18.118;2024-01-11T13:56:47;16.20;30.80
23311;DHT22;11828;51.508;18.118;2024-01-11T13:59:14;16.20;30.90
23311;DHT22;11828;51.508;18.118;2024-01-11T14:01:40;16.20;31.00
23311;DHT22;11828;51.508;18.118;2024-01-11T14:04:07;16.10;31.00
23311;DHT22;11828;51.508;18.118;2024-01-11T14:06:32;16.30;31.20
23311;DHT22;11828;51.508;18.118;2024-01-11T14:08:59;16.30;31.00
23311;DHT22;11828;51.508;18.118;2024-01-11T14:11:25;16.30;30.80
23311;DHT22;11828;51.508;18.118;2024-01-11T14:13:51;16.30;30.90
23311;DHT22;11828;51.508;18.118;2024-01-11T14:16:17;16.30;31.30
23311;DHT22;11828;51.508;18.118;2024-01-11T14:18:43;16.40;31.70
23311;DHT22;11828;51.508;18.118;2024-01-11T14:21:09;16.30;31.20
23311;DHT22;11828;51.508;18.118;2024-01-11T14:23:37;16.40;31.20
23311;DHT22;11828;51.508;18.118;2024-01-11T14:26:03;16.40;31.30
23311;DHT22;11828;51.508;18.118;2024-01-11T14:28:30;16.40;31.30
23311;DHT22;11828;51.508;18.118;2024-01-11T14:30:56;16.30;31.40
23311;DHT22;11828;51.508;18.118;2024-01-11T14:33:22;16.40;31.50
23311;DHT22;11828;51.508;18.118;2024-01-11T14:35:48;16.40;31.50
23311;DHT22;11828;51.508;18.118;2024-01-11T14:38:14;16.50;31.40
23311;DHT22;11828;51.508;18.118;2024-01-11T14:40:40;16.40;31.50
23311;DHT22;11828;51.508;18.118;2024-01-11T14:43:07;16.50;31.50
23311;DHT22;11828;51.508;18.118;2024-01-11T14:45:34;16.40;31.60
23311;DHT22;11828;51.508;18.118;2024-01-11T14:48:00;16.50;31.60
23311;DHT22;11828;51.508;18.118;2024-01-11T14:50:26;16.30;31.40
23311;DHT22;11828;51.508;18.118;2024-01-11T14:52:54;16.30;31.80
23311;DHT22;11828;51.508;18.118;2024-01-11T14:55:20;16.30;31.70
23311;DHT22;11828;51.508;18.118;2024-01-11T14:57:46;16.30;31.80
23311;DHT22;11828;51.508;18.118;2024-01-11T15:00:13;16.30;31.60
23311;DHT22;11828;51.508;18.118;2024-01-11T15:02:39;16.40;31.70
23311;DHT22;11828;51.508;18.118;2024-01-11T15:05:07;16.40;31.70
23311;DHT22;11828;51.508;18.118;2024-01-11T15:07:33;16.50;31.70
23311;DHT22;11828;51.508;18.118;2024-01-11T15:09:59;16.50;31.60
23311;DHT22;11828;51.508;18.118;2024-01-11T15:12:26;16.50;31.60
23311;DHT22;11828;51.508;18.118;2024-01-11T15:14:52;16.50;31.60
23311;DHT22;11828;51.508;18.118;2024-01-11T15:17:18;16.40;31.60
23311;DHT22;11828;51.508;18.118;2024-01-11T15:19:45;16.40;31.60
23311;DHT22;11828;51.508;18.118;2024-01-11T15:22:13;16.40;31.80